createdAt,value
2019-05-09T00:02:13.938Z,11.45
2019-05-09T00:08:18.482Z,11.34
2019-05-09T00:14:23.832Z,11.62
2019-05-09T00:20:45.269Z,11.38
2019-05-09T00:26:49.815Z,11.32
2019-05-09T00:32:54.410Z,11.25
2019-05-09T00:38:58.949Z,11.14
2019-05-09T00:45:05.920Z,11.25
2019-05-09T00:51:10.685Z,11.06
2019-05-09T00:57:16.914Z,10.94
2019-05-09T01:03:23.438Z,10.91
2019-05-09T01:09:27.962Z,10.89
2019-05-09T01:15:33.440Z,10.95
2019-05-09T01:21:38.191Z,10.94
2019-05-09T01:27:43.241Z,10.82
2019-05-09T01:33:47.775Z,11.18
2019-05-09T01:39:53.412Z,10.94
2019-05-09T01:45:58.153Z,10.92
2019-05-09T01:52:03.567Z,10.87
2019-05-09T01:58:08.363Z,11.02
2019-05-09T02:04:13.670Z,10.99
2019-05-09T02:10:18.500Z,10.86
2019-05-09T02:16:24.708Z,10.84
2019-05-09T02:22:35.839Z,10.82
2019-05-09T02:28:40.409Z,10.88
2019-05-09T02:34:45.029Z,10.80
2019-05-09T02:40:49.579Z,10.83
2019-05-09T02:47:04.668Z,10.70
2019-05-09T02:53:09.243Z,10.79
2019-05-09T02:59:18.652Z,10.67
2019-05-09T03:05:21.735Z,10.64
2019-05-09T03:11:28.946Z,10.60
2019-05-09T03:17:32.720Z,10.41
2019-05-09T03:23:38.889Z,10.54
2019-05-09T03:29:49.454Z,10.71
2019-05-09T03:35:54.195Z,10.58
2019-05-09T03:41:58.812Z,10.60
2019-05-09T03:48:11.189Z,10.53
2019-05-09T03:54:18.153Z,10.38
2019-05-09T04:00:22.537Z,10.48
2019-05-09T04:06:28.234Z,10.41
2019-05-09T04:12:32.915Z,10.42
2019-05-09T04:18:37.696Z,10.21
2019-05-09T04:24:44.136Z,10.43
2019-05-09T04:30:48.690Z,10.29
2019-05-09T04:36:53.241Z,10.54
2019-05-09T04:43:10.982Z,10.39
2019-05-09T04:49:04.430Z,10.47
2019-05-09T04:55:10.237Z,10.46
2019-05-09T05:01:31.249Z,10.60
2019-05-09T05:07:37.649Z,11.06
2019-05-09T05:13:42.176Z,11.09
2019-05-09T05:19:47.639Z,11.38
2019-05-09T05:25:52.566Z,11.48
2019-05-09T05:31:58.775Z,11.59
2019-05-09T05:38:03.392Z,11.50
2019-05-09T05:44:08.594Z,11.23
2019-05-09T05:50:13.445Z,11.48
2019-05-09T05:56:17.957Z,12.10
2019-05-09T06:02:22.513Z,12.45
2019-05-09T06:08:27.625Z,12.59
2019-05-09T06:14:32.283Z,12.77
2019-05-09T06:20:38.585Z,12.64
2019-05-09T06:26:43.325Z,12.47
2019-05-09T06:32:47.967Z,12.72
2019-05-09T06:38:52.640Z,12.81
2019-05-09T06:45:10.844Z,12.79
2019-05-09T06:51:18.894Z,12.69
2019-05-09T06:57:21.703Z,12.78
2019-05-09T07:03:44.011Z,12.75
2019-05-09T07:09:50.220Z,12.88
2019-05-09T07:15:54.804Z,13.02
2019-05-09T07:22:11.177Z,12.92
2019-05-09T07:28:17.855Z,13.20
2019-05-09T07:34:23.665Z,13.26
2019-05-09T07:40:30.761Z,13.38
2019-05-09T07:46:34.559Z,13.80
2019-05-09T07:52:39.127Z,13.96
2019-05-09T07:58:43.695Z,14.51
2019-05-09T08:04:49.079Z,15.28
2019-05-09T08:10:53.899Z,15.26
2019-05-09T08:16:58.533Z,14.50
2019-05-09T08:23:03.103Z,14.39
2019-05-09T08:29:09.439Z,14.14
2019-05-09T08:35:14.080Z,14.53
2019-05-09T08:41:19.066Z,14.76
2019-05-09T08:47:23.686Z,15.29
2019-05-09T08:53:28.247Z,15.48
2019-05-09T08:59:35.015Z,16.29
2019-05-09T09:05:43.099Z,16.44
2019-05-09T09:11:47.818Z,16.68
2019-05-09T09:17:52.861Z,16.45
2019-05-09T09:23:58.196Z,16.47
2019-05-09T09:30:17.652Z,15.96
2019-05-09T09:36:11.484Z,15.90
2019-05-09T09:42:19.911Z,16.21
2019-05-09T09:48:23.221Z,17.25
2019-05-09T09:54:28.576Z,17.85
2019-05-09T10:00:53.954Z,17.62
2019-05-09T10:06:58.975Z,17.61
2019-05-09T10:13:04.330Z,17.51
2019-05-09T10:19:23.096Z,16.88
2019-05-09T10:25:27.900Z,16.40
2019-05-09T10:31:32.744Z,17.06
2019-05-09T10:37:39.224Z,18.43
2019-05-09T10:43:48.570Z,17.27
2019-05-09T10:49:53.056Z,16.61
2019-05-09T10:55:57.830Z,16.89
2019-05-09T11:02:02.641Z,17.68
2019-05-09T11:08:08.317Z,17.44
2019-05-09T11:14:27.920Z,17.21
2019-05-09T11:20:28.180Z,18.86
2019-05-09T11:26:31.862Z,20.62
2019-05-09T11:32:38.564Z,20.06
2019-05-09T11:38:44.146Z,20.67
2019-05-09T11:44:49.170Z,21.68
2019-05-09T11:50:53.729Z,19.21
2019-05-09T11:56:58.314Z,19.85
2019-05-09T12:03:02.898Z,20.32
2019-05-09T12:09:09.532Z,19.78
2019-05-09T12:15:15.888Z,20.27
2019-05-09T12:21:20.471Z,22.44
2019-05-09T12:27:25.140Z,21.40
2019-05-09T12:33:33.128Z,20.27
2019-05-09T12:39:37.854Z,20.27
2019-05-09T12:45:42.677Z,20.34
2019-05-09T12:51:47.425Z,19.43
2019-05-09T12:57:53.231Z,18.97
2019-05-09T13:03:58.427Z,18.76
2019-05-09T13:10:03.136Z,18.13
2019-05-09T13:16:18.349Z,17.45
2019-05-09T13:22:23.065Z,17.15
2019-05-09T13:28:27.664Z,17.56
2019-05-09T13:34:32.479Z,20.38
2019-05-09T13:40:37.152Z,20.68
2019-05-09T13:46:41.814Z,19.41
2019-05-09T13:52:48.028Z,18.43
2019-05-09T13:58:52.975Z,17.31
2019-05-09T14:04:58.439Z,16.98
2019-05-09T14:11:03.119Z,16.93
2019-05-09T14:17:08.482Z,16.60
2019-05-09T14:23:13.979Z,16.31
2019-05-09T14:29:20.437Z,16.27
2019-05-09T14:35:25.026Z,16.38
2019-05-09T14:41:29.595Z,16.49
2019-05-09T14:47:34.149Z,16.79
2019-05-09T14:53:39.115Z,17.65
2019-05-09T14:59:43.860Z,18.08
2019-05-09T15:05:48.406Z,19.26
2019-05-09T15:11:53.016Z,20.36
2019-05-09T15:17:58.419Z,18.86
2019-05-09T15:24:03.172Z,18.20
2019-05-09T15:30:08.845Z,19.17
2019-05-09T15:36:13.465Z,18.37
2019-05-09T15:42:18.430Z,17.62
2019-05-09T15:48:23.051Z,17.47
2019-05-09T15:54:29.373Z,17.20
2019-05-09T16:00:34.171Z,17.08
2019-05-09T16:06:39.285Z,16.89
2019-05-09T16:12:44.055Z,16.60
2019-05-09T16:18:48.967Z,16.48
2019-05-09T16:24:53.625Z,16.19
2019-05-09T16:30:58.620Z,16.27
2019-05-09T16:37:03.250Z,15.50
2019-05-09T16:43:09.091Z,15.68
2019-05-09T16:49:16.675Z,15.94
2019-05-09T16:55:21.839Z,15.81
2019-05-09T17:01:28.381Z,16.24
2019-05-09T17:07:32.759Z,16.17
2019-05-09T17:13:37.346Z,16.03
2019-05-09T17:19:41.961Z,16.17
2019-05-09T17:25:48.046Z,16.19
2019-05-09T17:31:52.797Z,15.97
2019-05-09T17:37:57.491Z,15.86
2019-05-09T17:44:02.113Z,15.71
2019-05-09T17:50:08.387Z,15.35
2019-05-09T17:56:12.951Z,15.18
2019-05-09T18:02:17.639Z,15.12
2019-05-09T18:08:22.190Z,14.97
2019-05-09T18:14:27.655Z,15.02
2019-05-09T18:20:32.403Z,14.89
2019-05-09T18:26:38.192Z,14.72
2019-05-09T18:32:47.708Z,14.46
2019-05-09T18:38:52.455Z,14.32
2019-05-09T18:44:59.512Z,14.26
2019-05-09T18:51:03.377Z,14.28
2019-05-09T18:57:08.014Z,14.32
2019-05-09T19:03:12.625Z,14.11
2019-05-09T19:09:17.175Z,14.16
2019-05-09T19:15:38.844Z,13.92
2019-05-09T19:21:45.238Z,13.91
2019-05-09T19:27:49.914Z,13.53
2019-05-09T19:33:54.589Z,13.60
2019-05-09T19:39:59.143Z,13.48
2019-05-09T19:46:03.709Z,13.42
2019-05-09T19:52:08.239Z,13.21
2019-05-09T19:58:12.803Z,13.14
2019-05-09T20:04:17.361Z,13.16
2019-05-09T20:10:21.949Z,13.01
2019-05-09T20:16:36.239Z,13.09
2019-05-09T20:22:51.866Z,12.95
2019-05-09T20:28:47.151Z,12.94
2019-05-09T20:34:51.711Z,12.62
2019-05-09T20:40:56.516Z,12.76
2019-05-09T20:47:01.237Z,12.80
2019-05-09T20:53:09.708Z,12.59
2019-05-09T20:59:12.612Z,12.45
2019-05-09T21:05:18.880Z,12.53
2019-05-09T21:11:23.608Z,12.63
2019-05-09T21:17:28.451Z,12.54
2019-05-09T21:23:33.178Z,12.51
2019-05-09T21:29:37.975Z,12.54
2019-05-09T21:35:42.633Z,12.19
2019-05-09T21:41:47.217Z,12.45
2019-05-09T21:47:51.781Z,12.25
2019-05-09T21:53:56.308Z,12.12
2019-05-09T22:00:00.941Z,12.10
2019-05-09T22:06:05.635Z,12.18
2019-05-09T22:12:10.392Z,12.31
2019-05-09T22:18:15.047Z,12.23
2019-05-09T22:24:19.609Z,11.96
2019-05-09T22:30:24.965Z,11.93
2019-05-09T22:36:29.537Z,11.92
2019-05-09T22:42:34.160Z,12.15
2019-05-09T22:48:38.713Z,11.93
2019-05-09T22:54:43.287Z,11.97
2019-05-09T23:00:47.990Z,12.21
2019-05-09T23:06:52.548Z,12.17
2019-05-09T23:12:57.156Z,12.17
2019-05-09T23:19:01.786Z,12.21
2019-05-09T23:25:08.047Z,12.38
2019-05-09T23:31:14.239Z,12.49
2019-05-09T23:37:18.792Z,12.15
2019-05-09T23:43:23.347Z,12.16
2019-05-09T23:49:27.892Z,12.35
2019-05-09T23:55:50.402Z,12.14
